Capitol Logistics 108


KSEA
Seattle-Tacoma International Airport
Seattle, Washington, US
PHNL
Daniel K Inouye International Airport
Honolulu, Hawaii, US

Route Details

Aircraft Information
Primary: Boeing 747-400BCF
Backup: Boeing 777-200LRF
Route Data
Distance: 2329nm
Sched. Duration: 6h 00m
Avg. Duration: 5h 32m (-68m)
Times Flown: 2
Recm'd Route: HAROB6 HQM SEDAR FOZZI HEKAB A332 HALLI BOARD R464 BITTA MAGGI3
Planned Altitude: 36,000ft
Origin Wx: KSEA 250253Z 02010KT 10SM BKN050 06/M01 A3034 RMK AO2 SLP281 T00611011 51019
Dest. Wx: PHNL 250253Z 19006KT 10SM FEW025 FEW040 FEW250 26/21 A2989 RMK AO2 SLP122 T02610211 53002 $
Notes:

Financial History
Total Freight: 311,608lbs
Average Load: 155,804lbs/flt
Fuel Used: 200,562lbs
Avg. Fuel Used: 100,281lbs/flt
Fuel Expense: $224,629
Avg. Fuel Expense: $112,315
Avg. Fuel Cost: $1.12/lbs
Total Gross Income: $432,334
Pilot Pay: $378
Total Expenses: $46,796
Total Revenue: $158,383
Average Revenue: $216,167.24